createdAt,value
2019-01-24T00:00:14.919Z,77.17
2019-01-24T00:02:43.135Z,81.17
2019-01-24T00:05:11.345Z,83.25
2019-01-24T00:07:39.579Z,77.27
2019-01-24T00:10:11.042Z,80.05
2019-01-24T00:12:39.243Z,79.00
2019-01-24T00:15:09.008Z,80.30
2019-01-24T00:17:37.218Z,77.30
2019-01-24T00:20:08.150Z,75.90
2019-01-24T00:22:36.378Z,76.55
2019-01-24T00:25:07.704Z,74.07
2019-01-24T00:27:35.935Z,75.12
2019-01-24T00:30:11.096Z,80.80
2019-01-24T00:32:39.287Z,82.53
2019-01-24T00:35:08.326Z,85.42
2019-01-24T00:37:36.547Z,82.90
2019-01-24T00:40:13.754Z,84.10
2019-01-24T00:42:42.001Z,76.35
2019-01-24T00:45:10.201Z,79.12
2019-01-24T00:47:38.402Z,83.37
2019-01-24T00:50:09.280Z,82.45
2019-01-24T00:52:37.469Z,79.57
2019-01-24T00:55:09.110Z,78.90
2019-01-24T00:57:37.326Z,78.15
2019-01-24T01:00:14.590Z,83.22
2019-01-24T01:02:42.914Z,80.90
2019-01-24T01:05:12.588Z,83.67
2019-01-24T01:07:40.785Z,81.78
2019-01-24T01:10:10.151Z,81.32
2019-01-24T01:12:38.440Z,80.75
2019-01-24T01:15:09.787Z,78.30
2019-01-24T01:17:38.016Z,83.40
2019-01-24T01:20:11.863Z,85.22
2019-01-24T01:22:40.062Z,87.75
2019-01-24T01:25:10.304Z,81.45
2019-01-24T01:27:38.502Z,83.03
2019-01-24T01:30:09.962Z,81.97
2019-01-24T01:32:38.182Z,86.57
2019-01-24T01:35:06.815Z,81.70
2019-01-24T01:37:37.702Z,84.22
2019-01-24T01:40:09.263Z,85.70
2019-01-24T01:42:37.453Z,87.90
2019-01-24T01:45:08.783Z,83.35
2019-01-24T01:47:37.018Z,86.82
2019-01-24T01:50:08.485Z,87.20
2019-01-24T01:52:36.675Z,85.03
2019-01-24T01:55:05.867Z,83.90
2019-01-24T01:57:34.070Z,85.05
2019-01-24T02:00:02.271Z,82.57
2019-01-24T02:02:30.508Z,94.20
2019-01-24T02:04:58.705Z,85.30
2019-01-24T02:07:26.910Z,83.92
2019-01-24T02:09:55.150Z,81.85
2019-01-24T02:12:23.359Z,78.67
2019-01-24T02:14:51.555Z,85.47
2019-01-24T02:17:21.026Z,91.63
2019-01-24T02:19:49.252Z,87.60
2019-01-24T02:22:17.485Z,88.97
2019-01-24T02:24:45.746Z,85.97
2019-01-24T02:27:13.983Z,86.55
2019-01-24T02:29:42.206Z,88.27
2019-01-24T02:32:10.463Z,86.32
2019-01-24T02:34:39.452Z,84.10
2019-01-24T02:37:07.685Z,91.47
2019-01-24T02:39:35.968Z,86.63
2019-01-24T02:42:04.201Z,85.90
2019-01-24T02:44:32.437Z,88.10
2019-01-24T02:47:00.700Z,87.27
2019-01-24T02:49:28.942Z,86.50
2019-01-24T02:51:57.180Z,92.22
2019-01-24T02:54:25.452Z,86.57
2019-01-24T02:56:53.676Z,82.57
2019-01-24T02:59:21.904Z,83.25
2019-01-24T03:01:50.160Z,93.95
2019-01-24T03:04:18.387Z,87.70
2019-01-24T03:06:46.637Z,94.67
2019-01-24T03:09:14.896Z,91.42
2019-01-24T03:11:43.132Z,90.33
2019-01-24T03:14:11.414Z,92.25
2019-01-24T03:16:39.675Z,99.95
2019-01-24T03:19:07.915Z,91.67
2019-01-24T03:21:36.151Z,91.57
2019-01-24T03:24:04.404Z,90.87
2019-01-24T03:26:32.624Z,94.37
2019-01-24T03:29:00.851Z,97.57
2019-01-24T03:31:29.515Z,98.12
2019-01-24T03:33:57.744Z,98.42
2019-01-24T03:36:26.747Z,100.58
2019-01-24T03:38:55.008Z,97.62
2019-01-24T03:41:23.236Z,98.03
2019-01-24T03:43:51.465Z,100.30
2019-01-24T03:46:19.738Z,100.30
2019-01-24T03:48:47.984Z,102.35
2019-01-24T03:51:16.215Z,103.55
2019-01-24T03:53:44.480Z,102.50
2019-01-24T03:56:12.729Z,98.20
2019-01-24T03:58:41.259Z,102.62
2019-01-24T04:01:09.544Z,97.82
2019-01-24T04:03:37.783Z,95.67
2019-01-24T04:06:06.036Z,104.25
2019-01-24T04:08:34.291Z,107.60
2019-01-24T04:11:02.527Z,103.80
2019-01-24T04:13:30.851Z,103.05
2019-01-24T04:15:59.109Z,103.42
2019-01-24T04:18:27.342Z,104.17
2019-01-24T04:20:55.585Z,102.72
2019-01-24T04:23:23.871Z,104.87
2019-01-24T04:25:52.108Z,107.20
2019-01-24T04:28:20.351Z,102.95
2019-01-24T04:30:48.612Z,100.25
2019-01-24T04:33:16.842Z,94.80
2019-01-24T04:35:45.064Z,95.40
2019-01-24T04:38:14.182Z,106.12
2019-01-24T04:40:42.409Z,105.83
2019-01-24T04:43:10.678Z,102.17
2019-01-24T04:45:38.935Z,102.67
2019-01-24T04:48:07.164Z,98.47
2019-01-24T04:50:35.398Z,102.17
2019-01-24T04:53:03.664Z,97.80
2019-01-24T04:55:31.904Z,100.60
2019-01-24T04:58:00.137Z,101.02
2019-01-24T05:00:29.833Z,108.87
2019-01-24T05:02:58.079Z,103.12
2019-01-24T05:05:27.820Z,103.47
2019-01-24T05:07:56.463Z,102.58
2019-01-24T05:10:24.932Z,104.75
2019-01-24T05:12:53.178Z,105.37
2019-01-24T05:15:21.448Z,102.20
2019-01-24T05:17:49.673Z,98.17
2019-01-24T05:20:17.907Z,106.43
2019-01-24T05:22:46.213Z,105.17
2019-01-24T05:25:16.099Z,105.10
2019-01-24T05:27:44.392Z,107.52
2019-01-24T05:30:15.909Z,111.05
2019-01-24T05:32:44.135Z,105.67
2019-01-24T05:35:12.369Z,106.83
2019-01-24T05:37:40.653Z,105.15
2019-01-24T05:40:10.020Z,96.78
2019-01-24T05:42:38.284Z,97.85
2019-01-24T05:45:09.757Z,106.58
2019-01-24T05:47:37.984Z,104.05
2019-01-24T05:50:09.162Z,102.13
2019-01-24T05:52:37.517Z,101.45
2019-01-24T05:55:07.917Z,96.70
2019-01-24T05:57:36.149Z,100.20
2019-01-24T06:00:10.400Z,104.50
2019-01-24T06:02:38.636Z,104.83
2019-01-24T06:05:09.089Z,104.38
2019-01-24T06:07:37.348Z,101.85
2019-01-24T06:10:08.879Z,98.50
2019-01-24T06:12:37.122Z,99.28
2019-01-24T06:15:08.998Z,109.37
2019-01-24T06:17:37.355Z,109.50
2019-01-24T06:20:07.840Z,106.60
2019-01-24T06:22:37.205Z,101.78
2019-01-24T06:25:08.443Z,93.92
2019-01-24T06:27:36.771Z,100.10
2019-01-24T06:30:16.685Z,106.50
2019-01-24T06:32:45.070Z,102.02
2019-01-24T06:35:13.308Z,112.90
2019-01-24T06:37:41.592Z,108.72
2019-01-24T06:40:12.197Z,110.37
2019-01-24T06:42:40.452Z,104.80
2019-01-24T06:45:22.192Z,107.70
2019-01-24T06:47:50.452Z,104.25
2019-01-24T06:50:19.657Z,102.45
2019-01-24T06:52:47.896Z,104.97
2019-01-24T06:55:24.908Z,102.90
2019-01-24T06:57:53.147Z,106.13
2019-01-24T07:00:21.428Z,104.50
2019-01-24T07:02:49.667Z,111.30
2019-01-24T07:05:17.912Z,110.90
2019-01-24T07:07:46.181Z,111.25
2019-01-24T07:10:16.344Z,104.35
2019-01-24T07:12:44.646Z,113.52
2019-01-24T07:15:15.196Z,106.25
2019-01-24T07:17:43.459Z,107.90
2019-01-24T07:20:13.932Z,103.65
2019-01-24T07:22:42.181Z,103.83
2019-01-24T07:25:13.072Z,102.58
2019-01-24T07:27:41.305Z,102.53
2019-01-24T07:30:17.334Z,102.45
2019-01-24T07:32:45.579Z,102.30
2019-01-24T07:35:15.572Z,102.75
2019-01-24T07:37:43.799Z,99.15
2019-01-24T07:40:16.764Z,101.30
2019-01-24T07:42:45.004Z,98.65
2019-01-24T07:45:16.057Z,111.50
2019-01-24T07:47:44.302Z,102.20
2019-01-24T07:50:13.672Z,104.72
2019-01-24T07:52:41.941Z,106.27
2019-01-24T07:55:11.911Z,104.72
2019-01-24T07:57:40.724Z,98.87
2019-01-24T08:00:14.848Z,98.47
2019-01-24T08:02:43.105Z,98.87
2019-01-24T08:05:13.176Z,103.90
2019-01-24T08:07:41.424Z,98.17
2019-01-24T08:10:15.332Z,95.77
2019-01-24T08:12:43.595Z,92.75
2019-01-24T08:15:16.584Z,97.55
2019-01-24T08:17:44.840Z,93.42
2019-01-24T08:20:15.357Z,96.00
2019-01-24T08:22:43.666Z,102.58
2019-01-24T08:25:12.012Z,94.92
2019-01-24T08:27:40.235Z,94.87
2019-01-24T08:30:11.744Z,90.63
2019-01-24T08:32:39.968Z,94.97
2019-01-24T08:35:09.224Z,98.70
2019-01-24T08:37:37.435Z,100.33
2019-01-24T08:40:08.924Z,99.17
2019-01-24T08:42:37.163Z,98.27
2019-01-24T08:45:08.034Z,100.85
2019-01-24T08:47:36.292Z,94.87
2019-01-24T08:50:08.028Z,95.95
2019-01-24T08:52:36.281Z,96.78
2019-01-24T08:55:07.927Z,92.15
2019-01-24T08:57:36.181Z,92.62
2019-01-24T09:00:10.537Z,96.85
2019-01-24T09:02:38.780Z,96.05
2019-01-24T09:05:07.588Z,92.00
2019-01-24T09:07:35.809Z,97.17
2019-01-24T09:10:07.002Z,94.72
2019-01-24T09:12:35.227Z,97.20
2019-01-24T09:15:03.552Z,95.07
2019-01-24T09:17:31.781Z,97.05
2019-01-24T09:20:00.048Z,93.30
2019-01-24T09:22:28.272Z,93.70
2019-01-24T09:24:56.495Z,89.13
2019-01-24T09:27:24.753Z,89.95
2019-01-24T09:29:52.996Z,94.37
2019-01-24T09:32:21.256Z,92.55
2019-01-24T09:34:49.485Z,89.22
2019-01-24T09:37:17.723Z,91.35
2019-01-24T09:39:45.948Z,94.87
2019-01-24T09:42:14.708Z,94.70
2019-01-24T09:44:43.159Z,89.47
2019-01-24T09:47:11.383Z,83.10
2019-01-24T09:49:39.637Z,87.20
2019-01-24T09:52:07.872Z,92.60
2019-01-24T09:54:36.136Z,90.60
2019-01-24T09:57:04.375Z,89.50
2019-01-24T09:59:32.645Z,85.87
2019-01-24T10:02:00.879Z,91.80
2019-01-24T10:04:29.156Z,90.45
2019-01-24T10:06:57.425Z,89.52
2019-01-24T10:09:25.648Z,89.58
2019-01-24T10:11:53.892Z,87.90
2019-01-24T10:14:22.127Z,86.60
2019-01-24T10:16:50.372Z,93.37
2019-01-24T10:19:18.588Z,89.37
2019-01-24T10:21:46.848Z,95.12
2019-01-24T10:24:15.085Z,89.70
2019-01-24T10:26:43.338Z,87.82
2019-01-24T10:29:11.604Z,89.60
2019-01-24T10:31:39.852Z,86.80
2019-01-24T10:34:08.196Z,84.20
2019-01-24T10:36:42.828Z,85.40
2019-01-24T10:39:08.339Z,84.52
2019-01-24T10:41:36.561Z,88.42
2019-01-24T10:44:04.811Z,80.55
2019-01-24T10:46:33.039Z,82.70
2019-01-24T10:49:01.544Z,85.55
2019-01-24T10:51:29.785Z,84.75
2019-01-24T10:53:58.000Z,84.75
2019-01-24T10:56:26.256Z,82.17
2019-01-24T10:58:54.729Z,80.87
2019-01-24T11:01:22.993Z,79.70
2019-01-24T11:03:51.211Z,79.05
2019-01-24T11:06:19.490Z,78.23
2019-01-24T11:08:47.717Z,81.37
2019-01-24T11:11:15.966Z,80.57
2019-01-24T11:13:44.255Z,84.55
2019-01-24T11:16:12.488Z,83.15
2019-01-24T11:18:40.768Z,84.32
2019-01-24T11:21:08.974Z,81.20
2019-01-24T11:23:37.245Z,82.97
2019-01-24T11:26:05.467Z,86.22
2019-01-24T11:28:33.759Z,81.42
2019-01-24T11:31:02.065Z,76.28
2019-01-24T11:33:30.636Z,75.72
2019-01-24T11:35:58.892Z,77.17
2019-01-24T11:38:27.109Z,75.25
2019-01-24T11:40:55.490Z,92.47
2019-01-24T11:43:23.701Z,94.28
2019-01-24T11:45:51.953Z,96.45
2019-01-24T11:48:20.189Z,93.17
2019-01-24T11:50:48.424Z,94.58
2019-01-24T11:53:16.664Z,96.50
2019-01-24T11:55:44.906Z,95.10
2019-01-24T11:58:13.180Z,94.15
2019-01-24T12:00:43.112Z,96.22
2019-01-24T12:03:11.351Z,95.87
2019-01-24T12:05:39.582Z,97.37
2019-01-24T12:08:07.915Z,97.25
2019-01-24T12:10:36.139Z,98.70
2019-01-24T12:13:04.423Z,93.52
2019-01-24T12:15:32.670Z,98.72
2019-01-24T12:18:00.908Z,99.52
2019-01-24T12:20:29.577Z,103.27
2019-01-24T12:22:57.829Z,98.27
2019-01-24T12:28:08.897Z,100.05
2019-01-24T12:30:37.322Z,98.22
2019-01-24T12:33:05.817Z,105.47
2019-01-24T12:35:34.128Z,99.20
2019-01-24T12:38:02.394Z,102.85
2019-01-24T12:40:30.710Z,100.07
2019-01-24T12:42:58.990Z,99.85
2019-01-24T12:45:32.312Z,104.83
2019-01-24T12:48:00.575Z,98.82
2019-01-24T12:50:28.834Z,102.90
2019-01-24T12:52:57.081Z,99.47
2019-01-24T12:55:25.612Z,100.38
2019-01-24T12:57:53.921Z,96.92
2019-01-24T13:00:27.668Z,98.03
2019-01-24T13:02:55.968Z,96.85
2019-01-24T13:05:24.280Z,94.30
2019-01-24T13:07:52.490Z,93.12
2019-01-24T13:10:22.592Z,93.72
2019-01-24T13:12:50.906Z,95.15
2019-01-24T13:15:21.526Z,91.65
2019-01-24T13:17:49.816Z,90.53
2019-01-24T13:20:18.086Z,96.25
2019-01-24T13:22:46.343Z,89.85
2019-01-24T13:25:17.433Z,89.60
2019-01-24T13:27:45.681Z,90.35
2019-01-24T13:30:16.826Z,90.30
2019-01-24T13:32:45.071Z,91.67
2019-01-24T13:35:13.339Z,88.25
2019-01-24T13:37:41.668Z,88.05
2019-01-24T13:40:13.035Z,89.58
2019-01-24T13:42:41.374Z,94.62
2019-01-24T13:45:12.703Z,89.72
2019-01-24T13:47:40.928Z,87.63
2019-01-24T13:50:12.118Z,91.50
2019-01-24T13:52:40.349Z,85.85
2019-01-24T13:55:08.669Z,86.50
2019-01-24T13:57:37.012Z,87.92
2019-01-24T14:00:14.665Z,91.08
2019-01-24T14:02:42.901Z,87.22
2019-01-24T14:05:14.402Z,89.25
2019-01-24T14:07:42.648Z,92.55
2019-01-24T14:10:13.880Z,88.42
2019-01-24T14:12:42.108Z,89.72
2019-01-24T14:15:15.955Z,92.43
2019-01-24T14:17:44.283Z,89.17
2019-01-24T14:20:15.509Z,88.82
2019-01-24T14:22:43.776Z,86.63
2019-01-24T14:25:17.295Z,93.45
2019-01-24T14:27:45.547Z,90.67
2019-01-24T14:30:19.382Z,85.72
2019-01-24T14:32:47.648Z,86.05
2019-01-24T14:35:15.904Z,93.92
2019-01-24T14:37:44.217Z,91.20
2019-01-24T14:40:14.037Z,90.28
2019-01-24T14:42:42.342Z,88.58
2019-01-24T14:45:19.880Z,89.17
2019-01-24T14:47:48.106Z,90.32
2019-01-24T14:50:19.061Z,92.15
2019-01-24T14:52:47.297Z,87.53
2019-01-24T14:55:15.585Z,89.50
2019-01-24T14:57:44.031Z,89.97
2019-01-24T15:00:21.657Z,90.97
2019-01-24T15:02:49.887Z,92.02
2019-01-24T15:05:18.115Z,89.10
2019-01-24T15:07:47.490Z,90.55
2019-01-24T15:10:15.988Z,87.92
2019-01-24T15:12:44.239Z,86.28
2019-01-24T15:15:15.985Z,88.15
2019-01-24T15:17:44.204Z,83.22
2019-01-24T15:20:14.090Z,82.33
2019-01-24T15:22:42.340Z,84.17
2019-01-24T15:25:12.545Z,84.45
2019-01-24T15:27:40.804Z,86.97
2019-01-24T15:30:14.772Z,81.10
2019-01-24T15:32:43.034Z,85.62
2019-01-24T15:35:11.308Z,84.32
2019-01-24T15:37:39.546Z,81.75
2019-01-24T15:40:19.550Z,93.35
2019-01-24T15:42:47.805Z,89.92
2019-01-24T15:45:17.076Z,82.88
2019-01-24T15:47:45.413Z,85.32
2019-01-24T15:50:16.196Z,85.35
2019-01-24T15:52:44.453Z,82.72
2019-01-24T15:55:12.715Z,85.62
2019-01-24T15:57:40.981Z,84.28
2019-01-24T16:00:18.161Z,89.40
2019-01-24T16:02:46.393Z,90.22
2019-01-24T16:05:14.727Z,92.33
2019-01-24T16:07:42.960Z,93.00
2019-01-24T16:10:14.051Z,97.02
2019-01-24T16:12:42.287Z,91.90
2019-01-24T16:15:20.040Z,89.67
2019-01-24T16:17:48.265Z,89.45
2019-01-24T16:20:19.399Z,88.52
2019-01-24T16:22:47.700Z,85.62
2019-01-24T16:25:17.999Z,87.12
2019-01-24T16:27:46.261Z,87.20
2019-01-24T16:30:19.395Z,93.90
2019-01-24T16:32:47.736Z,87.90
2019-01-24T16:35:17.716Z,84.22
2019-01-24T16:37:45.971Z,91.92
2019-01-24T16:40:22.794Z,87.65
2019-01-24T16:42:51.048Z,94.30
2019-01-24T16:45:21.364Z,92.17
2019-01-24T16:47:49.590Z,93.87
2019-01-24T16:50:19.494Z,93.27
2019-01-24T16:52:47.773Z,97.05
2019-01-24T16:55:17.534Z,98.55
2019-01-24T16:57:46.993Z,95.60
2019-01-24T17:00:28.947Z,105.15
2019-01-24T17:02:57.274Z,100.80
2019-01-24T17:05:25.511Z,106.60
2019-01-24T17:07:53.780Z,109.10
2019-01-24T17:10:27.621Z,106.97
2019-01-24T17:12:55.883Z,106.03
2019-01-24T17:15:24.123Z,106.80
2019-01-24T17:17:52.465Z,106.05
2019-01-24T17:20:23.422Z,111.03
2019-01-24T17:22:52.044Z,109.42
2019-01-24T17:25:21.231Z,115.75
2019-01-24T17:27:49.470Z,119.13
2019-01-24T17:30:20.763Z,115.52
2019-01-24T17:32:49.003Z,113.95
2019-01-24T17:35:17.266Z,114.40
2019-01-24T17:37:45.503Z,113.40
2019-01-24T17:40:25.607Z,117.82
2019-01-24T17:42:53.838Z,116.57
2019-01-24T17:45:22.168Z,114.75
2019-01-24T17:47:50.464Z,114.90
2019-01-24T17:50:18.783Z,104.35
2019-01-24T17:52:47.163Z,110.60
2019-01-24T17:55:27.168Z,109.67
2019-01-24T17:57:55.444Z,114.28
2019-01-24T18:00:25.484Z,111.10
2019-01-24T18:02:53.752Z,110.88
2019-01-24T18:05:22.081Z,112.88
2019-01-24T18:07:50.327Z,104.55
2019-01-24T18:10:27.152Z,110.37
2019-01-24T18:12:55.435Z,108.00
2019-01-24T18:15:25.677Z,112.17
2019-01-24T18:17:53.920Z,108.70
2019-01-24T18:20:33.682Z,110.80
2019-01-24T18:23:02.104Z,105.22
2019-01-24T18:25:30.356Z,107.65
2019-01-24T18:27:58.584Z,106.05
2019-01-24T18:30:28.395Z,106.30
2019-01-24T18:32:56.633Z,111.03
2019-01-24T18:35:25.048Z,114.82
2019-01-24T18:37:53.308Z,109.90
2019-01-24T18:40:26.405Z,109.20
2019-01-24T18:42:55.207Z,109.65
2019-01-24T18:45:41.476Z,108.52
2019-01-24T18:48:09.744Z,115.42
2019-01-24T18:50:38.017Z,114.30
2019-01-24T18:53:06.303Z,116.62
2019-01-24T18:55:37.201Z,110.30
2019-01-24T18:58:05.786Z,112.37
2019-01-24T19:00:38.398Z,109.17
2019-01-24T19:03:07.580Z,112.62
2019-01-24T19:05:35.890Z,113.05
2019-01-24T19:08:04.351Z,114.08
2019-01-24T19:10:32.585Z,112.65
2019-01-24T19:13:00.861Z,110.88
2019-01-24T19:15:29.148Z,109.55
2019-01-24T19:17:57.378Z,108.03
2019-01-24T19:20:25.614Z,110.45
2019-01-24T19:22:53.881Z,104.35
2019-01-24T19:25:22.803Z,106.92
2019-01-24T19:27:51.067Z,110.50
2019-01-24T19:30:31.208Z,107.87
2019-01-24T19:32:59.520Z,108.60
2019-01-24T19:35:27.812Z,113.22
2019-01-24T19:37:56.095Z,108.17
2019-01-24T19:40:28.952Z,110.63
2019-01-24T19:42:57.180Z,107.43
2019-01-24T19:45:26.806Z,111.92
2019-01-24T19:47:55.066Z,112.42
2019-01-24T19:50:25.452Z,112.35
2019-01-24T19:52:53.807Z,107.50
2019-01-24T19:55:22.076Z,110.17
2019-01-24T19:57:50.308Z,112.00
2019-01-24T20:00:27.668Z,111.12
2019-01-24T20:02:55.976Z,111.62
2019-01-24T20:05:24.221Z,112.92
2019-01-24T20:07:52.503Z,112.03
2019-01-24T20:10:23.352Z,114.65
2019-01-24T20:12:51.604Z,119.02
2019-01-24T20:15:21.625Z,113.17
2019-01-24T20:17:49.862Z,112.97
2019-01-24T20:20:18.443Z,117.67
2019-01-24T20:22:46.881Z,113.95
2019-01-24T20:25:17.555Z,114.67
2019-01-24T20:27:45.787Z,114.95
2019-01-24T20:30:19.088Z,109.92
2019-01-24T20:32:47.325Z,110.37
2019-01-24T20:35:40.608Z,114.05
2019-01-24T20:38:10.484Z,106.70
2019-01-24T20:40:39.053Z,115.30
2019-01-24T20:43:10.757Z,109.03
2019-01-24T20:45:39.300Z,110.45
2019-01-24T20:48:07.529Z,118.55
2019-01-24T20:50:35.817Z,108.83
2019-01-24T20:53:04.454Z,112.55
2019-01-24T20:55:32.731Z,109.25
2019-01-24T20:58:00.961Z,109.70
2019-01-24T21:00:29.240Z,110.95
2019-01-24T21:02:57.485Z,111.90
2019-01-24T21:05:26.036Z,108.17
2019-01-24T21:07:54.307Z,116.12
2019-01-24T21:10:46.297Z,111.80
2019-01-24T21:13:14.849Z,114.30
2019-01-24T21:15:43.992Z,105.78
2019-01-24T21:18:12.293Z,106.70
2019-01-24T21:20:40.535Z,108.52
2019-01-24T21:23:08.777Z,104.55
2019-01-24T21:25:37.045Z,106.75
2019-01-24T21:28:05.364Z,109.00
2019-01-24T21:30:35.573Z,111.25
2019-01-24T21:33:04.363Z,112.25
2019-01-24T21:35:32.628Z,108.22
2019-01-24T21:38:01.009Z,108.67
2019-01-24T21:40:29.271Z,109.42
2019-01-24T21:42:57.504Z,115.37
2019-01-24T21:45:28.546Z,110.90
2019-01-24T21:47:56.804Z,111.40
2019-01-24T21:50:27.298Z,114.90
2019-01-24T21:52:55.568Z,115.70
2019-01-24T21:55:23.860Z,113.47
2019-01-24T21:57:52.156Z,111.95
2019-01-24T22:00:22.324Z,104.93
2019-01-24T22:02:50.598Z,104.55
2019-01-24T22:05:18.973Z,104.92
2019-01-24T22:07:47.211Z,108.85
2019-01-24T22:10:17.936Z,107.10
2019-01-24T22:12:46.176Z,112.92
2019-01-24T22:15:16.872Z,110.77
2019-01-24T22:17:45.129Z,115.20
2019-01-24T22:20:14.937Z,120.10
2019-01-24T22:22:43.171Z,118.47
2019-01-24T22:25:22.664Z,116.25
2019-01-24T22:27:50.928Z,119.80
2019-01-24T22:30:29.361Z,124.35
2019-01-24T22:32:57.659Z,129.60
2019-01-24T22:35:25.911Z,126.10
2019-01-24T22:37:54.176Z,122.10
2019-01-24T22:40:22.412Z,123.05
2019-01-24T22:42:50.693Z,121.47
2019-01-24T22:45:21.161Z,121.62
2019-01-24T22:47:49.423Z,122.13
2019-01-24T22:50:17.656Z,125.22
2019-01-24T22:52:46.740Z,125.90
2019-01-24T22:55:15.002Z,123.40
2019-01-24T22:57:43.232Z,121.13
2019-01-24T23:00:19.153Z,125.95
2019-01-24T23:02:47.380Z,125.50
2019-01-24T23:05:15.686Z,124.70
2019-01-24T23:07:43.923Z,122.67
2019-01-24T23:10:12.168Z,126.80
2019-01-24T23:12:40.432Z,124.78
2019-01-24T23:15:10.910Z,127.35
2019-01-24T23:17:39.137Z,127.00
2019-01-24T23:20:10.352Z,128.55
2019-01-24T23:22:38.580Z,125.40
2019-01-24T23:25:06.828Z,126.30
2019-01-24T23:27:35.092Z,123.10
2019-01-24T23:30:05.001Z,123.33
2019-01-24T23:32:33.245Z,123.72
2019-01-24T23:35:01.531Z,123.78
2019-01-24T23:37:29.768Z,116.33
2019-01-24T23:39:58.008Z,118.00
2019-01-24T23:42:26.299Z,115.40
2019-01-24T23:44:54.548Z,120.82
2019-01-24T23:47:22.846Z,119.90
2019-01-24T23:49:51.108Z,118.60
2019-01-24T23:52:19.346Z,119.37
2019-01-24T23:54:47.575Z,114.55
2019-01-24T23:57:15.852Z,114.70
2019-01-24T23:59:44.088Z,120.72
